sensor_id;sensor_type;location;lat;lon;timestamp;temperature;humidity
28244;DHT22;15510;52.512;13.300;2024-01-15T00:01:25;3.20;99.90
28244;DHT22;15510;52.512;13.300;2024-01-15T00:04:02;3.20;99.90
28244;DHT22;15510;52.512;13.300;2024-01-15T00:06:28;3.30;99.90
28244;DHT22;15510;52.512;13.300;2024-01-15T00:08:54;3.20;99.90
28244;DHT22;15510;52.512;13.300;2024-01-15T00:11:20;3.10;99.90
28244;DHT22;15510;52.512;13.300;2024-01-15T00:13:46;3.10;99.90
28244;DHT22;15510;52.512;13.300;2024-01-15T00:16:21;3.00;99.90
28244;DHT22;15510;52.512;13.300;2024-01-15T00:18:49;3.00;99.90
28244;DHT22;15510;52.512;13.300;2024-01-15T00:21:15;3.00;99.90
28244;DHT22;15510;52.512;13.300;2024-01-15T00:23:52;3.00;99.90
28244;DHT22;15510;52.512;13.300;2024-01-15T00:26:18;3.00;99.90
28244;DHT22;15510;52.512;13.300;2024-01-15T00:28:44;3.00;99.90
28244;DHT22;15510;52.512;13.300;2024-01-15T00:31:10;2.90;99.90
28244;DHT22;15510;52.512;13.300;2024-01-15T00:33:42;2.90;99.90
28244;DHT22;15510;52.512;13.300;2024-01-15T00:36:08;3.00;99.90
28244;DHT22;15510;52.512;13.300;2024-01-15T00:38:37;3.10;99.90
28244;DHT22;15510;52.512;13.300;2024-01-15T00:41:03;3.10;99.90
28244;DHT22;15510;52.512;13.300;2024-01-15T00:43:29;3.00;99.90
28244;DHT22;15510;52.512;13.300;2024-01-15T00:46:01;3.00;99.90
28244;DHT22;15510;52.512;13.300;2024-01-15T00:48:27;3.10;99.90
28244;DHT22;15510;52.512;13.300;2024-01-15T00:50:53;3.20;99.90
28244;DHT22;15510;52.512;13.300;2024-01-15T00:53:20;3.10;99.90
28244;DHT22;15510;52.512;13.300;2024-01-15T00:55:49;3.20;99.90
28244;DHT22;15510;52.512;13.300;2024-01-15T00:58:21;3.10;99.90
28244;DHT22;15510;52.512;13.300;2024-01-15T01:00:47;3.20;99.90
28244;DHT22;15510;52.512;13.300;2024-01-15T01:03:15;3.10;99.90
28244;DHT22;15510;52.512;13.300;2024-01-15T01:05:41;3.10;99.90
28244;DHT22;15510;52.512;13.300;2024-01-15T01:08:07;3.00;99.90
28244;DHT22;15510;52.512;13.300;2024-01-15T01:10:37;3.00;99.90
28244;DHT22;15510;52.512;13.300;2024-01-15T01:13:03;3.00;99.90
28244;DHT22;15510;52.512;13.300;2024-01-15T01:15:29;3.10;99.90
28244;DHT22;15510;52.512;13.300;2024-01-15T01:17:55;3.00;99.90
28244;DHT22;15510;52.512;13.300;2024-01-15T01:20:23;3.00;99.90
28244;DHT22;15510;52.512;13.300;2024-01-15T01:22:54;3.00;99.90
28244;DHT22;15510;52.512;13.300;2024-01-15T01:25:25;2.90;99.90
28244;DHT22;15510;52.512;13.300;2024-01-15T01:27:51;2.90;99.90
28244;DHT22;15510;52.512;13.300;2024-01-15T01:30:19;2.90;99.90
28244;DHT22;15510;52.512;13.300;2024-01-15T01:32:48;2.80;99.90
28244;DHT22;15510;52.512;13.300;2024-01-15T01:35:14;2.90;99.90
28244;DHT22;15510;52.512;13.300;2024-01-15T01:37:44;2.90;99.90
28244;DHT22;15510;52.512;13.300;2024-01-15T01:40:09;2.90;99.90
28244;DHT22;15510;52.512;13.300;2024-01-15T01:42:35;2.80;99.90
28244;DHT22;15510;52.512;13.300;2024-01-15T01:45:01;2.70;99.90
28244;DHT22;15510;52.512;13.300;2024-01-15T01:47:30;2.70;99.90
28244;DHT22;15510;52.512;13.300;2024-01-15T01:49:56;2.60;99.90
28244;DHT22;15510;52.512;13.300;2024-01-15T01:52:22;2.70;99.90
28244;DHT22;15510;52.512;13.300;2024-01-15T01:54:52;2.70;99.90
28244;DHT22;15510;52.512;13.300;2024-01-15T01:57:21;2.60;99.90
28244;DHT22;15510;52.512;13.300;2024-01-15T01:59:47;2.60;99.90
28244;DHT22;15510;52.512;13.300;2024-01-15T02:02:13;2.50;99.90
28244;DHT22;15510;52.512;13.300;2024-01-15T02:04:39;2.60;99.90
28244;DHT22;15510;52.512;13.300;2024-01-15T02:07:11;2.50;99.90
28244;DHT22;15510;52.512;13.300;2024-01-15T02:09:44;2.50;99.90
28244;DHT22;15510;52.512;13.300;2024-01-15T02:12:16;2.50;99.90
28244;DHT22;15510;52.512;13.300;2024-01-15T02:14:46;2.50;99.90
28244;DHT22;15510;52.512;13.300;2024-01-15T02:17:12;2.40;99.90
28244;DHT22;15510;52.512;13.300;2024-01-15T02:19:41;2.50;99.90
28244;DHT22;15510;52.512;13.300;2024-01-15T02:22:07;2.50;99.90
28244;DHT22;15510;52.512;13.300;2024-01-15T02:24:40;2.50;99.90
28244;DHT22;15510;52.512;13.300;2024-01-15T02:27:15;2.60;99.90
28244;DHT22;15510;52.512;13.300;2024-01-15T02:29:41;2.60;99.90
28244;DHT22;15510;52.512;13.300;2024-01-15T02:32:09;2.60;99.90
28244;DHT22;15510;52.512;13.300;2024-01-15T02:34:34;2.70;99.90
28244;DHT22;15510;52.512;13.300;2024-01-15T02:37:00;2.80;99.90
28244;DHT22;15510;52.512;13.300;2024-01-15T02:39:26;2.70;99.90
28244;DHT22;15510;52.512;13.300;2024-01-15T02:41:52;2.70;99.90
28244;DHT22;15510;52.512;13.300;2024-01-15T02:44:21;2.60;99.90
28244;DHT22;15510;52.512;13.300;2024-01-15T02:46:46;2.60;99.90
28244;DHT22;15510;52.512;13.300;2024-01-15T02:49:15;2.60;99.90
28244;DHT22;15510;52.512;13.300;2024-01-15T02:51:44;2.60;99.90
28244;DHT22;15510;52.512;13.300;2024-01-15T02:54:10;2.60;99.90
28244;DHT22;15510;52.512;13.300;2024-01-15T02:56:39;2.60;99.90
28244;DHT22;15510;52.512;13.300;2024-01-15T02:59:08;2.70;99.90
28244;DHT22;15510;52.512;13.300;2024-01-15T03:01:36;2.60;99.90
28244;DHT22;15510;52.512;13.300;2024-01-15T03:04:04;2.60;99.90
28244;DHT22;15510;52.512;13.300;2024-01-15T03:06:30;2.70;99.90
28244;DHT22;15510;52.512;13.300;2024-01-15T03:08:56;2.70;99.90
28244;DHT22;15510;52.512;13.300;2024-01-15T03:11:22;2.70;99.90
28244;DHT22;15510;52.512;13.300;2024-01-15T03:13:48;2.70;99.90
28244;DHT22;15510;52.512;13.300;2024-01-15T03:16:19;2.70;99.90
28244;DHT22;15510;52.512;13.300;2024-01-15T03:18:48;2.70;99.90
28244;DHT22;15510;52.512;13.300;2024-01-15T03:21:36;2.70;99.90
28244;DHT22;15510;52.512;13.300;2024-01-15T03:24:01;2.80;99.90
28244;DHT22;15510;52.512;13.300;2024-01-15T03:26:29;2.80;99.90
28244;DHT22;15510;52.512;13.300;2024-01-15T03:28:55;2.80;99.90
28244;DHT22;15510;52.512;13.300;2024-01-15T03:31:27;2.80;99.90
28244;DHT22;15510;52.512;13.300;2024-01-15T03:33:53;2.80;99.90
28244;DHT22;15510;52.512;13.300;2024-01-15T03:36:22;2.90;99.90
28244;DHT22;15510;52.512;13.300;2024-01-15T03:38:48;2.90;99.90
28244;DHT22;15510;52.512;13.300;2024-01-15T03:41:16;2.90;99.90
28244;DHT22;15510;52.512;13.300;2024-01-15T03:43:42;2.80;99.90
28244;DHT22;15510;52.512;13.300;2024-01-15T03:46:08;2.80;99.90
28244;DHT22;15510;52.512;13.300;2024-01-15T03:48:43;2.70;99.90
28244;DHT22;15510;52.512;13.300;2024-01-15T03:51:11;2.80;99.90
28244;DHT22;15510;52.512;13.300;2024-01-15T03:53:48;2.80;99.90
28244;DHT22;15510;52.512;13.300;2024-01-15T03:56:13;2.80;99.90
28244;DHT22;15510;52.512;13.300;2024-01-15T03:58:40;2.70;99.90
28244;DHT22;15510;52.512;13.300;2024-01-15T04:01:19;2.80;99.90
28244;DHT22;15510;52.512;13.300;2024-01-15T04:03:45;2.80;99.90
28244;DHT22;15510;52.512;13.300;2024-01-15T04:06:21;2.80;99.90
28244;DHT22;15510;52.512;13.300;2024-01-15T04:08:47;2.80;99.90
28244;DHT22;15510;52.512;13.300;2024-01-15T04:11:12;2.80;99.90
28244;DHT22;15510;52.512;13.300;2024-01-15T04:13:39;2.80;99.90
28244;DHT22;15510;52.512;13.300;2024-01-15T04:16:05;2.70;99.90
28244;DHT22;15510;52.512;13.300;2024-01-15T04:18:39;2.70;99.90
28244;DHT22;15510;52.512;13.300;2024-01-15T04:21:05;2.70;99.90
28244;DHT22;15510;52.512;13.300;2024-01-15T04:23:37;2.70;99.90
28244;DHT22;15510;52.512;13.300;2024-01-15T04:26:09;2.70;99.90
28244;DHT22;15510;52.512;13.300;2024-01-15T04:28:37;2.80;99.90
28244;DHT22;15510;52.512;13.300;2024-01-15T04:31:21;2.80;99.90
28244;DHT22;15510;52.512;13.300;2024-01-15T04:33:47;2.80;99.90
28244;DHT22;15510;52.512;13.300;2024-01-15T04:36:16;2.80;99.90
28244;DHT22;15510;52.512;13.300;2024-01-15T04:38:44;2.80;99.90
28244;DHT22;15510;52.512;13.300;2024-01-15T04:41:12;2.80;99.90
28244;DHT22;15510;52.512;13.300;2024-01-15T04:43:41;2.90;99.90
28244;DHT22;15510;52.512;13.300;2024-01-15T04:46:09;2.90;99.90
28244;DHT22;15510;52.512;13.300;2024-01-15T04:48:40;2.90;99.90
28244;DHT22;15510;52.512;13.300;2024-01-15T04:51:08;2.90;99.90
28244;DHT22;15510;52.512;13.300;2024-01-15T04:53:45;2.90;99.90
28244;DHT22;15510;52.512;13.300;2024-01-15T04:56:21;2.80;99.90
28244;DHT22;15510;52.512;13.300;2024-01-15T04:58:52;2.90;99.90
28244;DHT22;15510;52.512;13.300;2024-01-15T05:01:18;2.90;99.90
28244;DHT22;15510;52.512;13.300;2024-01-15T05:03:47;2.90;99.90
28244;DHT22;15510;52.512;13.300;2024-01-15T05:06:13;3.00;99.90
28244;DHT22;15510;52.512;13.300;2024-01-15T05:08:39;3.00;99.90
28244;DHT22;15510;52.512;13.300;2024-01-15T05:11:05;3.00;99.90
28244;DHT22;15510;52.512;13.300;2024-01-15T05:13:31;3.10;99.90
28244;DHT22;15510;52.512;13.300;2024-01-15T05:15:57;3.10;99.90
28244;DHT22;15510;52.512;13.300;2024-01-15T05:18:23;3.10;99.90
28244;DHT22;15510;52.512;13.300;2024-01-15T05:20:49;3.00;99.90
28244;DHT22;15510;52.512;13.300;2024-01-15T05:23:15;3.00;99.90
28244;DHT22;15510;52.512;13.300;2024-01-15T05:25:40;3.00;99.90
28244;DHT22;15510;52.512;13.300;2024-01-15T05:28:06;3.00;99.90
28244;DHT22;15510;52.512;13.300;2024-01-15T05:30:32;3.00;99.90
28244;DHT22;15510;52.512;13.300;2024-01-15T05:33:00;2.90;99.90
28244;DHT22;15510;52.512;13.300;2024-01-15T05:35:27;2.90;99.90
28244;DHT22;15510;52.512;13.300;2024-01-15T05:37:53;3.00;99.90
28244;DHT22;15510;52.512;13.300;2024-01-15T05:40:21;3.00;99.90
28244;DHT22;15510;52.512;13.300;2024-01-15T05:42:47;3.00;99.90
28244;DHT22;15510;52.512;13.300;2024-01-15T05:45:13;3.00;99.90
28244;DHT22;15510;52.512;13.300;2024-01-15T05:47:39;3.10;99.90
28244;DHT22;15510;52.512;13.300;2024-01-15T05:50:05;3.10;99.90
28244;DHT22;15510;52.512;13.300;2024-01-15T05:52:32;3.10;99.90
28244;DHT22;15510;52.512;13.300;2024-01-15T05:54:58;3.00;99.90
28244;DHT22;15510;52.512;13.300;2024-01-15T05:57:24;3.00;99.90
28244;DHT22;15510;52.512;13.300;2024-01-15T05:59:50;3.00;99.90
28244;DHT22;15510;52.512;13.300;2024-01-15T06:02:16;2.90;99.90
28244;DHT22;15510;52.512;13.300;2024-01-15T06:04:45;2.90;99.90
28244;DHT22;15510;52.512;13.300;2024-01-15T06:07:11;3.00;99.90
28244;DHT22;15510;52.512;13.300;2024-01-15T06:09:41;3.00;99.90
28244;DHT22;15510;52.512;13.300;2024-01-15T06:12:08;3.00;99.90
28244;DHT22;15510;52.512;13.300;2024-01-15T06:14:34;3.00;99.90
28244;DHT22;15510;52.512;13.300;2024-01-15T06:17:02;3.00;99.90
28244;DHT22;15510;52.512;13.300;2024-01-15T06:19:31;3.00;99.90
28244;DHT22;15510;52.512;13.300;2024-01-15T06:21:57;3.00;99.90
28244;DHT22;15510;52.512;13.300;2024-01-15T06:24:26;3.00;99.90
28244;DHT22;15510;52.512;13.300;2024-01-15T06:26:59;3.00;99.90
28244;DHT22;15510;52.512;13.300;2024-01-15T06:29:33;3.00;99.90
28244;DHT22;15510;52.512;13.300;2024-01-15T06:32:03;3.10;99.90
28244;DHT22;15510;52.512;13.300;2024-01-15T06:34:29;3.10;99.90
28244;DHT22;15510;52.512;13.300;2024-01-15T06:36:55;3.00;99.90
28244;DHT22;15510;52.512;13.300;2024-01-15T06:39:23;3.10;99.90
28244;DHT22;15510;52.512;13.300;2024-01-15T06:41:55;3.10;99.90
28244;DHT22;15510;52.512;13.300;2024-01-15T06:44:21;3.10;99.90
28244;DHT22;15510;52.512;13.300;2024-01-15T06:46:47;3.00;99.90
28244;DHT22;15510;52.512;13.300;2024-01-15T06:49:18;3.10;99.90
28244;DHT22;15510;52.512;13.300;2024-01-15T06:51:47;3.10;99.90
28244;DHT22;15510;52.512;13.300;2024-01-15T06:54:22;3.10;99.90
28244;DHT22;15510;52.512;13.300;2024-01-15T06:56:52;3.10;99.90
28244;DHT22;15510;52.512;13.300;2024-01-15T06:59:18;3.20;99.90
28244;DHT22;15510;52.512;13.300;2024-01-15T07:01:44;3.20;99.90
28244;DHT22;15510;52.512;13.300;2024-01-15T07:04:10;3.20;99.90
28244;DHT22;15510;52.512;13.300;2024-01-15T07:06:36;3.20;99.90
28244;DHT22;15510;52.512;13.300;2024-01-15T07:09:05;3.20;99.90
28244;DHT22;15510;52.512;13.300;2024-01-15T07:11:31;3.30;99.90
28244;DHT22;15510;52.512;13.300;2024-01-15T07:14:00;3.40;99.90
28244;DHT22;15510;52.512;13.300;2024-01-15T07:16:26;3.40;99.90
28244;DHT22;15510;52.512;13.300;2024-01-15T07:18:54;3.40;99.90
28244;DHT22;15510;52.512;13.300;2024-01-15T07:21:22;3.40;99.90
28244;DHT22;15510;52.512;13.300;2024-01-15T07:23:51;3.30;99.90
28244;DHT22;15510;52.512;13.300;2024-01-15T07:26:17;3.30;99.90
28244;DHT22;15510;52.512;13.300;2024-01-15T07:28:42;3.40;99.90
28244;DHT22;15510;52.512;13.300;2024-01-15T07:31:08;3.50;99.90
28244;DHT22;15510;52.512;13.300;2024-01-15T07:33:34;3.50;99.90
28244;DHT22;15510;52.512;13.300;2024-01-15T07:36:00;3.50;99.90
28244;DHT22;15510;52.512;13.300;2024-01-15T07:38:31;3.50;99.90
28244;DHT22;15510;52.512;13.300;2024-01-15T07:40:56;3.50;99.90
28244;DHT22;15510;52.512;13.300;2024-01-15T07:43:22;3.50;99.90
28244;DHT22;15510;52.512;13.300;2024-01-15T07:45:48;3.50;99.90
28244;DHT22;15510;52.512;13.300;2024-01-15T07:48:14;3.60;99.90
28244;DHT22;15510;52.512;13.300;2024-01-15T07:50:40;3.60;99.90
28244;DHT22;15510;52.512;13.300;2024-01-15T07:53:05;3.60;99.90
28244;DHT22;15510;52.512;13.300;2024-01-15T07:55:31;3.60;99.90
28244;DHT22;15510;52.512;13.300;2024-01-15T07:57:57;3.50;99.90
28244;DHT22;15510;52.512;13.300;2024-01-15T08:00:25;3.40;99.90
28244;DHT22;15510;52.512;13.300;2024-01-15T08:02:51;3.40;99.90
28244;DHT22;15510;52.512;13.300;2024-01-15T08:05:19;3.50;99.90
28244;DHT22;15510;52.512;13.300;2024-01-15T08:07:46;3.50;99.90
28244;DHT22;15510;52.512;13.300;2024-01-15T08:10:15;3.40;99.90
28244;DHT22;15510;52.512;13.300;2024-01-15T08:12:41;3.50;99.90
28244;DHT22;15510;52.512;13.300;2024-01-15T08:15:07;3.50;99.90
28244;DHT22;15510;52.512;13.300;2024-01-15T08:17:33;3.50;99.90
28244;DHT22;15510;52.512;13.300;2024-01-15T08:19:58;3.50;99.90
28244;DHT22;15510;52.512;13.300;2024-01-15T08:22:26;3.50;99.90
28244;DHT22;15510;52.512;13.300;2024-01-15T08:24:54;3.50;99.90
28244;DHT22;15510;52.512;13.300;2024-01-15T08:27:23;3.60;99.90
28244;DHT22;15510;52.512;13.300;2024-01-15T08:29:49;3.60;99.90
28244;DHT22;15510;52.512;13.300;2024-01-15T08:32:15;3.60;99.90
28244;DHT22;15510;52.512;13.300;2024-01-15T08:34:41;3.50;99.90
28244;DHT22;15510;52.512;13.300;2024-01-15T08:37:08;3.60;99.90
28244;DHT22;15510;52.512;13.300;2024-01-15T08:39:34;3.60;99.90
28244;DHT22;15510;52.512;13.300;2024-01-15T08:41:59;3.60;99.90
28244;DHT22;15510;52.512;13.300;2024-01-15T08:44:25;3.50;99.90
28244;DHT22;15510;52.512;13.300;2024-01-15T08:46:51;3.60;99.90
28244;DHT22;15510;52.512;13.300;2024-01-15T08:49:16;3.70;99.90
28244;DHT22;15510;52.512;13.300;2024-01-15T08:51:42;3.70;99.90
28244;DHT22;15510;52.512;13.300;2024-01-15T08:54:08;3.60;99.90
28244;DHT22;15510;52.512;13.300;2024-01-15T08:56:34;3.60;99.90
28244;DHT22;15510;52.512;13.300;2024-01-15T08:59:00;3.50;99.90
28244;DHT22;15510;52.512;13.300;2024-01-15T09:01:25;3.60;99.90
28244;DHT22;15510;52.512;13.300;2024-01-15T09:03:51;3.60;99.90
28244;DHT22;15510;52.512;13.300;2024-01-15T09:06:17;3.60;99.90
28244;DHT22;15510;52.512;13.300;2024-01-15T09:08:43;3.50;99.90
28244;DHT22;15510;52.512;13.300;2024-01-15T09:11:09;3.60;99.90
28244;DHT22;15510;52.512;13.300;2024-01-15T09:13:34;3.60;99.90
28244;DHT22;15510;52.512;13.300;2024-01-15T09:16:00;3.60;99.90
28244;DHT22;15510;52.512;13.300;2024-01-15T09:18:26;3.70;99.90
28244;DHT22;15510;52.512;13.300;2024-01-15T09:20:52;3.70;99.90
28244;DHT22;15510;52.512;13.300;2024-01-15T09:23:18;3.70;99.90
28244;DHT22;15510;52.512;13.300;2024-01-15T09:25:43;3.70;99.90
28244;DHT22;15510;52.512;13.300;2024-01-15T09:28:09;3.70;99.90
28244;DHT22;15510;52.512;13.300;2024-01-15T09:30:35;3.80;99.90
28244;DHT22;15510;52.512;13.300;2024-01-15T09:33:02;3.80;99.90
28244;DHT22;15510;52.512;13.300;2024-01-15T09:35:27;3.80;99.90
28244;DHT22;15510;52.512;13.300;2024-01-15T09:37:53;3.80;99.90
28244;DHT22;15510;52.512;13.300;2024-01-15T09:40:20;3.80;99.90
28244;DHT22;15510;52.512;13.300;2024-01-15T09:42:46;3.70;99.90
28244;DHT22;15510;52.512;13.300;2024-01-15T09:45:12;3.70;99.90
28244;DHT22;15510;52.512;13.300;2024-01-15T09:47:38;3.70;99.90
28244;DHT22;15510;52.512;13.300;2024-01-15T09:50:06;3.70;99.90
28244;DHT22;15510;52.512;13.300;2024-01-15T09:52:34;3.70;99.90
28244;DHT22;15510;52.512;13.300;2024-01-15T09:55:01;3.80;99.90
28244;DHT22;15510;52.512;13.300;2024-01-15T09:57:29;3.70;99.90
28244;DHT22;15510;52.512;13.300;2024-01-15T09:59:55;3.80;99.90
28244;DHT22;15510;52.512;13.300;2024-01-15T10:02:23;3.90;99.90
28244;DHT22;15510;52.512;13.300;2024-01-15T10:04:48;3.90;99.90
28244;DHT22;15510;52.512;13.300;2024-01-15T10:07:16;3.90;99.90
28244;DHT22;15510;52.512;13.300;2024-01-15T10:09:45;3.90;99.90
28244;DHT22;15510;52.512;13.300;2024-01-15T10:12:12;3.90;99.90
28244;DHT22;15510;52.512;13.300;2024-01-15T10:14:37;4.00;99.90
28244;DHT22;15510;52.512;13.300;2024-01-15T10:17:13;4.00;99.90
28244;DHT22;15510;52.512;13.300;2024-01-15T10:19:40;4.10;99.90
28244;DHT22;15510;52.512;13.300;2024-01-15T10:22:08;4.10;99.90
28244;DHT22;15510;52.512;13.300;2024-01-15T10:24:36;4.10;99.90
28244;DHT22;15510;52.512;13.300;2024-01-15T10:27:09;4.20;99.90
28244;DHT22;15510;52.512;13.300;2024-01-15T10:29:35;4.20;99.90
28244;DHT22;15510;52.512;13.300;2024-01-15T10:32:02;4.20;99.90
28244;DHT22;15510;52.512;13.300;2024-01-15T10:34:30;4.30;99.90
28244;DHT22;15510;52.512;13.300;2024-01-15T10:36:56;4.30;99.90
28244;DHT22;15510;52.512;13.300;2024-01-15T10:39:23;4.20;99.90
28244;DHT22;15510;52.512;13.300;2024-01-15T10:41:50;4.20;99.90
28244;DHT22;15510;52.512;13.300;2024-01-15T10:44:17;4.20;99.90
28244;DHT22;15510;52.512;13.300;2024-01-15T10:46:43;4.20;99.90
28244;DHT22;15510;52.512;13.300;2024-01-15T10:49:11;4.20;99.90
28244;DHT22;15510;52.512;13.300;2024-01-15T10:51:38;4.20;99.90
28244;DHT22;15510;52.512;13.300;2024-01-15T10:54:05;4.20;99.90
28244;DHT22;15510;52.512;13.300;2024-01-15T10:56:35;4.20;99.90
28244;DHT22;15510;52.512;13.300;2024-01-15T10:59:02;4.20;99.90
28244;DHT22;15510;52.512;13.300;2024-01-15T11:01:30;4.20;99.90
28244;DHT22;15510;52.512;13.300;2024-01-15T11:03:57;4.30;99.90
28244;DHT22;15510;52.512;13.300;2024-01-15T11:06:24;4.40;99.90
28244;DHT22;15510;52.512;13.300;2024-01-15T11:08:50;4.60;99.90
28244;DHT22;15510;52.512;13.300;2024-01-15T11:11:17;4.60;99.90
28244;DHT22;15510;52.512;13.300;2024-01-15T11:13:45;4.60;99.90
28244;DHT22;15510;52.512;13.300;2024-01-15T11:16:13;4.60;99.90
28244;DHT22;15510;52.512;13.300;2024-01-15T11:19:01;4.50;99.90
28244;DHT22;15510;52.512;13.300;2024-01-15T11:21:27;4.50;99.90
28244;DHT22;15510;52.512;13.300;2024-01-15T11:23:57;4.40;99.90
28244;DHT22;15510;52.512;13.300;2024-01-15T11:26:46;4.40;99.90
28244;DHT22;15510;52.512;13.300;2024-01-15T11:31:57;4.40;99.90
28244;DHT22;15510;52.512;13.300;2024-01-15T11:34:50;4.40;99.90
28244;DHT22;15510;52.512;13.300;2024-01-15T11:37:15;4.30;99.90
28244;DHT22;15510;52.512;13.300;2024-01-15T11:39:42;4.30;99.90
28244;DHT22;15510;52.512;13.300;2024-01-15T11:42:13;4.30;99.90
28244;DHT22;15510;52.512;13.300;2024-01-15T11:44:39;4.30;99.90
28244;DHT22;15510;52.512;13.300;2024-01-15T11:47:07;4.20;99.90
28244;DHT22;15510;52.512;13.300;2024-01-15T11:49:59;4.10;99.90
28244;DHT22;15510;52.512;13.300;2024-01-15T11:52:40;4.00;99.90
28244;DHT22;15510;52.512;13.300;2024-01-15T11:57:51;4.00;99.90
28244;DHT22;15510;52.512;13.300;2024-01-15T12:00:18;3.80;99.90
28244;DHT22;15510;52.512;13.300;2024-01-15T12:02:45;3.80;99.90
28244;DHT22;15510;52.512;13.300;2024-01-15T12:05:13;3.70;99.90
28244;DHT22;15510;52.512;13.300;2024-01-15T12:07:43;3.70;99.90
28244;DHT22;15510;52.512;13.300;2024-01-15T12:10:10;3.70;99.90
28244;DHT22;15510;52.512;13.300;2024-01-15T12:13:00;3.70;99.90
28244;DHT22;15510;52.512;13.300;2024-01-15T12:15:30;3.80;99.90
28244;DHT22;15510;52.512;13.300;2024-01-15T12:17:57;3.80;99.90
28244;DHT22;15510;52.512;13.300;2024-01-15T12:20:28;3.80;99.90
28244;DHT22;15510;52.512;13.300;2024-01-15T12:22:54;3.80;99.90
28244;DHT22;15510;52.512;13.300;2024-01-15T12:25:21;3.80;99.90
28244;DHT22;15510;52.512;13.300;2024-01-15T12:27:48;3.80;99.90
28244;DHT22;15510;52.512;13.300;2024-01-15T12:30:14;3.70;99.90
28244;DHT22;15510;52.512;13.300;2024-01-15T12:32:43;3.70;99.90
28244;DHT22;15510;52.512;13.300;2024-01-15T12:35:12;3.80;99.90
28244;DHT22;15510;52.512;13.300;2024-01-15T12:37:42;3.90;99.90
28244;DHT22;15510;52.512;13.300;2024-01-15T12:40:09;3.80;99.90
28244;DHT22;15510;52.512;13.300;2024-01-15T12:42:44;3.90;99.90
28244;DHT22;15510;52.512;13.300;2024-01-15T12:45:12;3.80;99.90
28244;DHT22;15510;52.512;13.300;2024-01-15T12:47:41;3.80;99.90
28244;DHT22;15510;52.512;13.300;2024-01-15T12:50:11;3.80;99.90
28244;DHT22;15510;52.512;13.300;2024-01-15T12:52:39;3.70;99.90
28244;DHT22;15510;52.512;13.300;2024-01-15T12:55:09;3.70;99.90
28244;DHT22;15510;52.512;13.300;2024-01-15T12:57:36;3.60;99.90
28244;DHT22;15510;52.512;13.300;2024-01-15T13:00:03;3.50;99.90
28244;DHT22;15510;52.512;13.300;2024-01-15T13:02:33;3.60;99.90
28244;DHT22;15510;52.512;13.300;2024-01-15T13:04:59;3.60;99.90
28244;DHT22;15510;52.512;13.300;2024-01-15T13:07:25;3.70;99.90
28244;DHT22;15510;52.512;13.300;2024-01-15T13:09:51;3.60;99.90
28244;DHT22;15510;52.512;13.300;2024-01-15T13:12:20;3.70;99.90
28244;DHT22;15510;52.512;13.300;2024-01-15T13:14:46;3.70;99.90
28244;DHT22;15510;52.512;13.300;2024-01-15T13:17:12;3.60;99.90
28244;DHT22;15510;52.512;13.300;2024-01-15T13:19:40;3.60;99.90
28244;DHT22;15510;52.512;13.300;2024-01-15T13:22:05;3.60;99.90
28244;DHT22;15510;52.512;13.300;2024-01-15T13:24:35;3.80;99.90
28244;DHT22;15510;52.512;13.300;2024-01-15T13:27:02;3.70;99.90
28244;DHT22;15510;52.512;13.300;2024-01-15T13:29:30;3.80;99.90
28244;DHT22;15510;52.512;13.300;2024-01-15T13:31:56;3.80;99.90
28244;DHT22;15510;52.512;13.300;2024-01-15T13:34:22;3.70;99.90
28244;DHT22;15510;52.512;13.300;2024-01-15T13:36:48;3.80;99.90
28244;DHT22;15510;52.512;13.300;2024-01-15T13:39:15;3.80;99.90
28244;DHT22;15510;52.512;13.300;2024-01-15T13:41:46;3.80;99.90
28244;DHT22;15510;52.512;13.300;2024-01-15T13:44:12;3.70;99.90
28244;DHT22;15510;52.512;13.300;2024-01-15T13:46:38;3.70;99.90
28244;DHT22;15510;52.512;13.300;2024-01-15T13:49:03;3.70;99.90
28244;DHT22;15510;52.512;13.300;2024-01-15T13:51:31;3.80;99.90
28244;DHT22;15510;52.512;13.300;2024-01-15T13:53:57;3.70;99.90
28244;DHT22;15510;52.512;13.300;2024-01-15T13:56:23;3.80;99.90
28244;DHT22;15510;52.512;13.300;2024-01-15T13:58:49;3.70;99.90
28244;DHT22;15510;52.512;13.300;2024-01-15T14:01:15;3.80;99.90
28244;DHT22;15510;52.512;13.300;2024-01-15T14:03:43;3.70;99.90
28244;DHT22;15510;52.512;13.300;2024-01-15T14:06:09;3.70;99.90
28244;DHT22;15510;52.512;13.300;2024-01-15T14:08:36;3.70;99.90
28244;DHT22;15510;52.512;13.300;2024-01-15T14:11:05;3.70;99.90
28244;DHT22;15510;52.512;13.300;2024-01-15T14:13:33;3.80;99.90
28244;DHT22;15510;52.512;13.300;2024-01-15T14:15:59;3.80;99.90
28244;DHT22;15510;52.512;13.300;2024-01-15T14:18:26;3.80;99.90
28244;DHT22;15510;52.512;13.300;2024-01-15T14:20:51;3.80;99.90
28244;DHT22;15510;52.512;13.300;2024-01-15T14:23:20;3.80;99.90
28244;DHT22;15510;52.512;13.300;2024-01-15T14:25:45;3.80;99.90
28244;DHT22;15510;52.512;13.300;2024-01-15T14:28:11;3.80;99.90
28244;DHT22;15510;52.512;13.300;2024-01-15T14:30:37;3.80;99.90
28244;DHT22;15510;52.512;13.300;2024-01-15T14:33:03;3.80;99.90
28244;DHT22;15510;52.512;13.300;2024-01-15T14:35:28;3.80;99.90
28244;DHT22;15510;52.512;13.300;2024-01-15T14:37:54;3.80;99.90
28244;DHT22;15510;52.512;13.300;2024-01-15T14:40:20;3.80;99.90
28244;DHT22;15510;52.512;13.300;2024-01-15T14:42:46;3.90;99.90
28244;DHT22;15510;52.512;13.300;2024-01-15T14:45:12;3.80;99.90
28244;DHT22;15510;52.512;13.300;2024-01-15T14:47:38;3.80;99.90
28244;DHT22;15510;52.512;13.300;2024-01-15T14:50:06;3.80;99.90
28244;DHT22;15510;52.512;13.300;2024-01-15T14:52:32;3.80;99.90
28244;DHT22;15510;52.512;13.300;2024-01-15T14:54:59;3.70;99.90
28244;DHT22;15510;52.512;13.300;2024-01-15T14:57:25;3.70;99.90
28244;DHT22;15510;52.512;13.300;2024-01-15T14:59:51;3.70;99.90
28244;DHT22;15510;52.512;13.300;2024-01-15T15:02:20;3.60;99.90
28244;DHT22;15510;52.512;13.300;2024-01-15T15:04:46;3.70;99.90
28244;DHT22;15510;52.512;13.300;2024-01-15T15:07:12;3.60;99.90
28244;DHT22;15510;52.512;13.300;2024-01-15T15:09:38;3.60;99.90
28244;DHT22;15510;52.512;13.300;2024-01-15T15:12:05;3.60;99.90
28244;DHT22;15510;52.512;13.300;2024-01-15T15:14:31;3.60;99.90
28244;DHT22;15510;52.512;13.300;2024-01-15T15:17:04;3.60;99.90
28244;DHT22;15510;52.512;13.300;2024-01-15T15:19:31;3.60;99.90
28244;DHT22;15510;52.512;13.300;2024-01-15T15:21:57;3.60;99.90
28244;DHT22;15510;52.512;13.300;2024-01-15T15:24:26;3.60;99.90
28244;DHT22;15510;52.512;13.300;2024-01-15T15:26:58;3.60;99.90
28244;DHT22;15510;52.512;13.300;2024-01-15T15:29:26;3.60;99.90
28244;DHT22;15510;52.512;13.300;2024-01-15T15:31:52;3.70;99.90
28244;DHT22;15510;52.512;13.300;2024-01-15T15:34:20;3.60;99.90
28244;DHT22;15510;52.512;13.300;2024-01-15T15:36:52;3.50;99.90
28244;DHT22;15510;52.512;13.300;2024-01-15T15:39:21;3.50;99.90